TimeEST,TemperatureF,Dew PointF,Humidity,Sea Level PressureIn,VisibilityMPH,Wind Direction,Wind SpeedMPH,Gust SpeedMPH,PrecipitationIn,Events,Conditions,WindDirDegrees,DateUTC
12:15 AM,26.2,19.0,74,30.50,10.0,Calm,Calm,-,N/A,,Clear,0,2012-11-15 05:15:00
12:35 AM,25.3,19.0,77,30.49,10.0,Calm,Calm,-,N/A,,Clear,0,2012-11-15 05:35:00
12:55 AM,24.4,19.0,80,30.48,10.0,Calm,Calm,-,N/A,,Clear,0,2012-11-15 05:55:00
1:15 AM,23.9,19.2,82,30.49,10.0,West,3.5,-,N/A,,Clear,280,2012-11-15 06:15:00
1:35 AM,24.6,18.5,78,30.49,10.0,Calm,Calm,-,N/A,,Clear,0,2012-11-15 06:35:00
1:55 AM,22.6,18.5,84,30.48,10.0,Calm,Calm,-,N/A,,Clear,0,2012-11-15 06:55:00
2:15 AM,22.1,18.9,87,30.47,10.0,Calm,Calm,-,N/A,,Clear,0,2012-11-15 07:15:00
2:35 AM,23.5,19.2,84,30.47,10.0,Calm,Calm,-,N/A,,Clear,0,2012-11-15 07:35:00
2:55 AM,23.0,19.2,85,30.46,10.0,Calm,Calm,-,N/A,,Clear,0,2012-11-15 07:55:00
3:15 AM,22.3,18.5,85,30.47,10.0,West,3.5,-,N/A,,Clear,270,2012-11-15 08:15:00
3:35 AM,22.1,18.5,86,30.48,10.0,West,3.5,-,N/A,,Clear,270,2012-11-15 08:35:00
3:55 AM,21.0,17.6,87,30.48,10.0,Calm,Calm,-,N/A,,Clear,0,2012-11-15 08:55:00
4:15 AM,20.5,17.4,88,30.48,10.0,ENE,3.5,-,N/A,,Clear,70,2012-11-15 09:15:00
4:35 AM,21.2,18.3,89,30.47,10.0,Calm,Calm,-,N/A,,Clear,0,2012-11-15 09:35:00
4:55 AM,20.8,17.6,87,30.45,10.0,Calm,Calm,-,N/A,,Clear,0,2012-11-15 09:55:00
5:15 AM,21.6,18.7,89,30.44,10.0,Calm,Calm,-,N/A,,Clear,0,2012-11-15 10:15:00
5:55 AM,21.0,18.0,88,30.44,10.0,West,3.5,-,N/A,,Clear,270,2012-11-15 10:55:00
6:15 AM,21.7,18.5,87,30.45,10.0,Calm,Calm,-,N/A,,Clear,0,2012-11-15 11:15:00
6:35 AM,20.3,17.4,89,30.46,10.0,Calm,Calm,-,N/A,,Clear,0,2012-11-15 11:35:00
6:55 AM,19.6,16.7,89,30.46,10.0,East,3.5,-,N/A,,Clear,80,2012-11-15 11:55:00
7:15 AM,20.1,17.4,89,30.47,10.0,Calm,Calm,-,N/A,,Clear,0,2012-11-15 12:15:00
7:35 AM,21.4,18.5,89,30.47,10.0,Calm,Calm,-,N/A,,Clear,0,2012-11-15 12:35:00
7:55 AM,22.6,19.2,87,30.48,10.0,Calm,Calm,-,N/A,,Clear,0,2012-11-15 12:55:00
8:15 AM,23.4,19.8,86,30.47,10.0,Calm,Calm,-,N/A,,Clear,0,2012-11-15 13:15:00
8:35 AM,24.3,20.5,85,30.47,10.0,Calm,Calm,-,N/A,,Clear,0,2012-11-15 13:35:00
8:55 AM,25.7,21.7,85,30.47,10.0,Calm,Calm,-,N/A,,Clear,0,2012-11-15 13:55:00
9:15 AM,26.1,21.4,82,30.46,10.0,Calm,Calm,-,N/A,,Clear,0,2012-11-15 14:15:00
9:35 AM,27.5,22.5,81,30.46,10.0,Calm,Calm,-,N/A,,Clear,0,2012-11-15 14:35:00
9:55 AM,29.5,22.3,75,30.45,10.0,Calm,Calm,-,N/A,,Clear,0,2012-11-15 14:55:00
10:15 AM,31.1,22.5,70,30.43,10.0,Calm,Calm,-,N/A,,Clear,0,2012-11-15 15:15:00
10:35 AM,32.2,23.5,70,30.43,10.0,Calm,Calm,-,N/A,,Clear,0,2012-11-15 15:35:00
10:55 AM,32.5,22.6,67,30.42,10.0,Calm,Calm,-,N/A,,Clear,0,2012-11-15 15:55:00
11:15 AM,33.4,23.5,67,30.41,10.0,Calm,Calm,-,N/A,,Clear,0,2012-11-15 16:15:00
11:35 AM,33.6,23.0,65,30.40,10.0,SE,3.5,-,N/A,,Clear,130,2012-11-15 16:35:00
11:55 AM,33.8,21.9,62,30.39,10.0,Calm,Calm,-,N/A,,Clear,0,2012-11-15 16:55:00
12:15 PM,35.1,21.2,57,30.38,10.0,Calm,Calm,-,N/A,,Clear,0,2012-11-15 17:15:00
12:35 PM,35.6,20.1,53,30.38,10.0,WSW,3.5,-,N/A,,Clear,250,2012-11-15 17:35:00
12:55 PM,36.0,19.8,52,30.37,10.0,Calm,Calm,-,N/A,,Clear,0,2012-11-15 17:55:00
1:15 PM,36.5,19.8,51,30.37,10.0,Calm,Calm,-,N/A,,Clear,0,2012-11-15 18:15:00
1:35 PM,36.9,19.2,49,30.36,10.0,Calm,Calm,-,N/A,,Clear,0,2012-11-15 18:35:00
1:55 PM,37.6,19.9,49,30.36,10.0,Calm,Calm,-,N/A,,Clear,0,2012-11-15 18:55:00
2:15 PM,37.2,19.9,50,30.35,10.0,Calm,Calm,-,N/A,,Clear,0,2012-11-15 19:15:00
2:35 PM,36.9,20.7,52,30.34,10.0,Calm,Calm,-,N/A,,Clear,0,2012-11-15 19:35:00
2:55 PM,36.9,20.5,52,30.34,10.0,Calm,Calm,-,N/A,,Clear,0,2012-11-15 19:55:00
3:15 PM,36.7,20.5,52,30.34,10.0,Calm,Calm,-,N/A,,Clear,0,2012-11-15 20:15:00
3:35 PM,36.0,21.0,55,30.34,10.0,Calm,Calm,-,N/A,,Clear,0,2012-11-15 20:35:00
3:55 PM,35.6,20.3,54,30.34,10.0,Calm,Calm,-,N/A,,Clear,0,2012-11-15 20:55:00
4:15 PM,34.2,21.4,60,30.34,10.0,Calm,Calm,-,N/A,,Clear,0,2012-11-15 21:15:00
4:35 PM,33.6,22.5,64,30.34,10.0,Calm,Calm,-,N/A,,Clear,0,2012-11-15 21:35:00
4:55 PM,32.4,22.5,67,30.34,10.0,NW,3.5,-,N/A,,Clear,310,2012-11-15 21:55:00
5:15 PM,31.6,22.3,68,30.34,10.0,Calm,Calm,-,N/A,,Clear,0,2012-11-15 22:15:00
5:35 PM,32.0,22.1,67,30.34,10.0,Calm,Calm,-,N/A,,Clear,0,2012-11-15 22:35:00
5:55 PM,31.1,21.9,69,30.34,10.0,Calm,Calm,-,N/A,,Clear,0,2012-11-15 22:55:00
6:15 PM,30.9,21.7,69,30.34,10.0,Calm,Calm,-,N/A,,Clear,0,2012-11-15 23:15:00
6:55 PM,29.3,21.6,73,30.34,10.0,Calm,Calm,-,N/A,,Clear,0,2012-11-15 23:55:00
7:15 PM,30.0,21.4,70,30.34,10.0,Calm,Calm,-,N/A,,Clear,0,2012-11-16 00:15:00
7:55 PM,30.2,21.6,70,30.33,10.0,Calm,Calm,-,N/A,,Clear,0,2012-11-16 00:55:00
8:35 PM,30.2,21.2,69,30.33,10.0,Calm,Calm,-,N/A,,Clear,0,2012-11-16 01:35:00
8:55 PM,30.0,21.2,70,30.33,10.0,Calm,Calm,-,N/A,,Clear,0,2012-11-16 01:55:00
9:15 PM,29.3,21.2,72,30.32,10.0,Calm,Calm,-,N/A,,Clear,0,2012-11-16 02:15:00
9:35 PM,27.7,21.2,77,30.32,10.0,Calm,Calm,-,N/A,,Clear,0,2012-11-16 02:35:00
9:55 PM,27.5,21.2,77,30.32,10.0,Calm,Calm,-,N/A,,Clear,0,2012-11-16 02:55:00
10:15 PM,27.1,19.8,74,30.31,10.0,Calm,Calm,-,N/A,,Clear,0,2012-11-16 03:15:00
10:35 PM,24.8,20.1,82,30.32,10.0,Calm,Calm,-,N/A,,Clear,0,2012-11-16 03:35:00
10:55 PM,26.1,21.2,82,30.31,10.0,Calm,Calm,-,N/A,,Clear,0,2012-11-16 03:55:00
11:15 PM,24.4,20.7,86,30.31,10.0,Calm,Calm,-,N/A,,Clear,0,2012-11-16 04:15:00
11:35 PM,24.8,20.8,85,30.31,10.0,Calm,Calm,-,N/A,,Clear,0,2012-11-16 04:35:00
11:55 PM,22.5,19.0,87,30.31,10.0,Calm,Calm,-,N/A,,Clear,0,2012-11-16 04:55:00